THA112 VHHH-ZSQD
Flight info
| Callsign | THA112 |
|---|---|
| Flight time | 2h 35m |
| Altitude | 39000 |
| Route | LEKEN V601 DOTMI/K0891S1190 A470 LJG B221 DST W117 BEGMO W13 TOGUG/K0889S1220 W13 HSN/K0893S1190 W13 PINOT/K0887S1220 B221 IDVEL IDV81A |
| Aircraft | A346/H-SDE2E3FGHIJ3J4J5M1RWXY/LB1D1 |
Departure
| Time | 2026-04-16 04:07 |
|---|---|
| Airport | Hong Kong International Airport (VHHH) |
Arrival
| Time | 2026-04-16 06:42 |
|---|---|
| Airport | Qingdao Jiaodong International Airport (ZSQD) |
| Time | Latitude | Longitude | Altitude | Speed | Heading |
|---|---|---|---|---|---|
| 2026-04-16 03:57 | 22.31284 | 113.91573 | 44 ft | 0 kts | 71° |
| 2026-04-16 04:01 | 22.31279 | 113.91558 | 44 ft | 3 kts | 69° |
| 2026-04-16 04:01 | 22.31271 | 113.91538 | 44 ft | 3 kts | 63° |
| 2026-04-16 04:01 | 22.31261 | 113.91520 | 44 ft | 3 kts | 54° |
| 2026-04-16 04:01 | 22.31249 | 113.91504 | 41 ft | 3 kts | 41° |
| 2026-04-16 04:02 | 22.31235 | 113.91494 | 42 ft | 3 kts | 21° |
| 2026-04-16 04:02 | 22.31221 | 113.91491 | 41 ft | 3 kts | 353° |
| 2026-04-16 04:02 | 22.31214 | 113.91492 | 41 ft | 0 kts | 341° |
| 2026-04-16 04:03 | 22.31240 | 113.91483 | 42 ft | 10 kts | 341° |
| 2026-04-16 04:03 | 22.31318 | 113.91454 | 44 ft | 13 kts | 341° |
| 2026-04-16 04:03 | 22.31408 | 113.91398 | 44 ft | 15 kts | 292° |
| 2026-04-16 04:04 | 22.31390 | 113.91279 | 44 ft | 18 kts | 250° |
| 2026-04-16 04:04 | 22.31341 | 113.91125 | 44 ft | 28 kts | 251° |
| 2026-04-16 04:04 | 22.31268 | 113.90907 | 44 ft | 31 kts | 250° |
| 2026-04-16 04:04 | 22.31196 | 113.90681 | 44 ft | 32 kts | 251° |
| 2026-04-16 04:05 | 22.31122 | 113.90451 | 44 ft | 33 kts | 251° |
| 2026-04-16 04:05 | 22.31047 | 113.90219 | 44 ft | 33 kts | 250° |
| 2026-04-16 04:05 | 22.30970 | 113.89984 | 44 ft | 29 kts | 250° |
| 2026-04-16 04:05 | 22.30998 | 113.89890 | 44 ft | 11 kts | 336° |
| 2026-04-16 04:06 | 22.31088 | 113.89872 | 44 ft | 16 kts | 23° |
| 2026-04-16 04:06 | 22.31153 | 113.89980 | 44 ft | 19 kts | 72° |
| 2026-04-16 04:06 | 22.31285 | 113.90392 | 44 ft | 107 kts | 71° |
| 2026-04-16 04:06 | 22.31630 | 113.91459 | 47 ft | 189 kts | 69° |
| 2026-04-16 04:07 | 22.32098 | 113.92908 | 790 ft | 206 kts | 73° |
| 2026-04-16 04:07 | 22.33002 | 113.95750 | 2504 ft | 208 kts | 74° |
| 2026-04-16 04:07 | 22.33407 | 113.97297 | 3037 ft | 225 kts | 80° |
| 2026-04-16 04:08 | 22.33714 | 113.99023 | 3603 ft | 242 kts | 82° |
| 2026-04-16 04:08 | 22.34017 | 114.00884 | 4177 ft | 260 kts | 82° |
| 2026-04-16 04:08 | 22.34333 | 114.02879 | 4767 ft | 277 kts | 85° |
| 2026-04-16 04:08 | 22.34177 | 114.04951 | 5527 ft | 279 kts | 113° |
| 2026-04-16 04:09 | 22.33124 | 114.06679 | 6442 ft | 276 kts | 136° |
| 2026-04-16 04:09 | 22.31693 | 114.08069 | 7340 ft | 278 kts | 150° |
| 2026-04-16 04:09 | 22.29877 | 114.08745 | 8147 ft | 279 kts | 174° |
| 2026-04-16 04:09 | 22.27934 | 114.08821 | 8994 ft | 282 kts | 181° |
| 2026-04-16 04:10 | 22.25960 | 114.08775 | 9812 ft | 286 kts | 182° |
| 2026-04-16 04:10 | 22.23937 | 114.08724 | 10505 ft | 294 kts | 182° |
| 2026-04-16 04:10 | 22.21829 | 114.08673 | 10919 ft | 312 kts | 182° |
| 2026-04-16 04:10 | 22.19597 | 114.08666 | 11294 ft | 330 kts | 176° |
| 2026-04-16 04:11 | 22.17321 | 114.09308 | 11605 ft | 351 kts | 155° |
| 2026-04-16 04:11 | 22.15288 | 114.10877 | 11916 ft | 371 kts | 135° |
| 2026-04-16 04:11 | 22.13834 | 114.13206 | 12242 ft | 389 kts | 118° |
| 2026-04-16 04:11 | 22.12615 | 114.15845 | 12894 ft | 395 kts | 118° |
| 2026-04-16 04:12 | 22.11377 | 114.18506 | 13613 ft | 398 kts | 118° |
| 2026-04-16 04:12 | 22.10116 | 114.21184 | 14311 ft | 402 kts | 118° |
| 2026-04-16 04:12 | 22.08768 | 114.23851 | 14969 ft | 406 kts | 124° |
| 2026-04-16 04:12 | 22.07057 | 114.26276 | 15625 ft | 408 kts | 133° |
| 2026-04-16 04:13 | 22.04981 | 114.28380 | 16249 ft | 410 kts | 142° |
| 2026-04-16 04:13 | 22.02689 | 114.30236 | 16899 ft | 414 kts | 145° |
| 2026-04-16 04:13 | 22.00345 | 114.32064 | 17527 ft | 418 kts | 145° |
| 2026-04-16 04:13 | 21.98175 | 114.34172 | 18056 ft | 425 kts | 130° |
| 2026-04-16 04:14 | 21.96699 | 114.36953 | 18634 ft | 431 kts | 112° |
| 2026-04-16 04:14 | 21.96073 | 114.40126 | 19215 ft | 437 kts | 94° |
| 2026-04-16 04:14 | 21.96094 | 114.42310 | 19601 ft | 440 kts | 89° |
| 2026-04-16 04:14 | 21.96235 | 114.45617 | 20152 ft | 444 kts | 88° |
| 2026-04-16 04:15 | 21.96364 | 114.48959 | 20650 ft | 448 kts | 90° |
| 2026-04-16 04:15 | 21.96275 | 114.52331 | 21164 ft | 450 kts | 95° |
| 2026-04-16 04:15 | 21.95742 | 114.56782 | 21829 ft | 454 kts | 102° |
| 2026-04-16 04:15 | 21.95303 | 114.59035 | 22163 ft | 456 kts | 104° |
| 2026-04-16 04:16 | 21.94359 | 114.63473 | 22822 ft | 460 kts | 104° |
| 2026-04-16 04:16 | 21.93627 | 114.66847 | 23309 ft | 464 kts | 104° |
| 2026-04-16 04:16 | 21.93130 | 114.69139 | 23630 ft | 466 kts | 104° |
| 2026-04-16 04:16 | 21.92392 | 114.72552 | 24099 ft | 469 kts | 104° |
| 2026-04-16 04:17 | 21.91651 | 114.75995 | 24544 ft | 472 kts | 104° |
| 2026-04-16 04:17 | 21.90906 | 114.79458 | 24979 ft | 476 kts | 104° |
| 2026-04-16 04:17 | 21.90167 | 114.82895 | 25395 ft | 479 kts | 104° |
| 2026-04-16 04:17 | 21.89426 | 114.86408 | 25811 ft | 482 kts | 103° |
| 2026-04-16 04:18 | 21.88876 | 114.89979 | 26179 ft | 485 kts | 98° |
| 2026-04-16 04:18 | 21.88582 | 114.93618 | 26550 ft | 489 kts | 94° |
| 2026-04-16 04:18 | 21.88553 | 114.97303 | 26915 ft | 493 kts | 90° |
| 2026-04-16 04:18 | 21.88654 | 115.00998 | 27281 ft | 495 kts | 89° |
| 2026-04-16 04:19 | 21.88779 | 115.04721 | 27634 ft | 498 kts | 89° |
| 2026-04-16 04:19 | 21.88908 | 115.08460 | 27996 ft | 501 kts | 89° |
| 2026-04-16 04:19 | 21.89034 | 115.12223 | 28355 ft | 503 kts | 89° |
| 2026-04-16 04:19 | 21.89156 | 115.15998 | 28749 ft | 503 kts | 89° |
| 2026-04-16 04:20 | 21.89274 | 115.19763 | 29244 ft | 502 kts | 89° |
| 2026-04-16 04:20 | 21.89390 | 115.23519 | 29752 ft | 500 kts | 89° |
| 2026-04-16 04:20 | 21.89504 | 115.27263 | 30230 ft | 499 kts | 89° |
| 2026-04-16 04:20 | 21.89617 | 115.31002 | 30710 ft | 498 kts | 89° |
| 2026-04-16 04:21 | 21.89730 | 115.34731 | 31183 ft | 497 kts | 89° |
| 2026-04-16 04:21 | 21.89841 | 115.38450 | 31606 ft | 496 kts | 89° |
| 2026-04-16 04:21 | 21.89950 | 115.42165 | 32025 ft | 495 kts | 89° |
| 2026-04-16 04:21 | 21.90059 | 115.45877 | 32437 ft | 495 kts | 89° |
| 2026-04-16 04:22 | 21.90166 | 115.49581 | 32847 ft | 494 kts | 89° |
| 2026-04-16 04:22 | 21.90272 | 115.53283 | 33235 ft | 493 kts | 89° |
| 2026-04-16 04:22 | 21.90385 | 115.56977 | 33627 ft | 492 kts | 88° |
| 2026-04-16 04:22 | 21.90621 | 115.60611 | 34007 ft | 492 kts | 85° |
| 2026-04-16 04:23 | 21.91044 | 115.64319 | 34401 ft | 492 kts | 82° |
| 2026-04-16 04:23 | 21.91635 | 115.67899 | 34773 ft | 491 kts | 79° |
| 2026-04-16 04:23 | 21.92360 | 115.71549 | 35132 ft | 490 kts | 78° |
| 2026-04-16 04:23 | 21.93082 | 115.75087 | 35467 ft | 490 kts | 78° |
| 2026-04-16 04:24 | 21.93817 | 115.78678 | 35789 ft | 489 kts | 78° |
| 2026-04-16 04:24 | 21.94549 | 115.82261 | 36092 ft | 489 kts | 78° |
| 2026-04-16 04:24 | 21.95276 | 115.85841 | 36387 ft | 488 kts | 78° |
| 2026-04-16 04:24 | 21.96000 | 115.89418 | 36691 ft | 488 kts | 78° |
| 2026-04-16 04:25 | 21.96723 | 115.92997 | 36955 ft | 488 kts | 78° |
| 2026-04-16 04:25 | 21.97444 | 115.96574 | 37206 ft | 488 kts | 79° |
| 2026-04-16 04:25 | 21.98164 | 116.00152 | 37387 ft | 489 kts | 79° |
| 2026-04-16 04:25 | 21.98886 | 116.03746 | 37553 ft | 491 kts | 79° |
| 2026-04-16 04:26 | 21.99645 | 116.07343 | 37703 ft | 492 kts | 74° |
| 2026-04-16 04:26 | 22.00966 | 116.10751 | 37771 ft | 496 kts | 60° |
| 2026-04-16 04:26 | 22.03016 | 116.13748 | 37893 ft | 498 kts | 46° |
| 2026-04-16 04:26 | 22.05661 | 116.16156 | 38000 ft | 499 kts | 33° |
| 2026-04-16 04:27 | 22.08753 | 116.17840 | 38074 ft | 500 kts | 19° |
| 2026-04-16 04:27 | 22.12123 | 116.18705 | 38118 ft | 500 kts | 5° |
| 2026-04-16 04:27 | 22.19074 | 116.18654 | 38326 ft | 500 kts | 357° |
| 2026-04-16 04:28 | 22.22549 | 116.18503 | 38428 ft | 501 kts | 357° |
| 2026-04-16 04:28 | 22.26035 | 116.18359 | 38518 ft | 501 kts | 357° |
| 2026-04-16 04:28 | 22.32966 | 116.18103 | 38682 ft | 503 kts | 358° |
| 2026-04-16 04:29 | 22.39966 | 116.17868 | 38831 ft | 504 kts | 358° |
| 2026-04-16 04:29 | 22.46978 | 116.17639 | 38879 ft | 504 kts | 358° |
| 2026-04-16 04:30 | 22.53988 | 116.17409 | 38879 ft | 504 kts | 358° |
| 2026-04-16 04:30 | 22.61011 | 116.17193 | 38876 ft | 504 kts | 360° |
| 2026-04-16 04:31 | 22.67981 | 116.17970 | 38878 ft | 505 kts | 12° |
| 2026-04-16 04:31 | 22.74652 | 116.20318 | 38879 ft | 505 kts | 24° |
| 2026-04-16 04:32 | 22.80724 | 116.24133 | 38878 ft | 505 kts | 36° |
| 2026-04-16 04:32 | 22.86306 | 116.28755 | 38879 ft | 505 kts | 38° |
| 2026-04-16 04:33 | 22.91855 | 116.33424 | 38879 ft | 505 kts | 38° |
| 2026-04-16 04:33 | 22.97427 | 116.38056 | 38881 ft | 505 kts | 37° |
| 2026-04-16 04:34 | 23.02978 | 116.42633 | 38880 ft | 505 kts | 37° |
| 2026-04-16 04:34 | 23.08570 | 116.47250 | 38879 ft | 505 kts | 37° |
| 2026-04-16 04:35 | 23.14164 | 116.51877 | 38880 ft | 505 kts | 38° |
| 2026-04-16 04:35 | 23.19752 | 116.56506 | 38880 ft | 505 kts | 38° |
| 2026-04-16 04:36 | 23.25341 | 116.61141 | 38880 ft | 505 kts | 38° |
| 2026-04-16 04:36 | 23.30921 | 116.65774 | 38880 ft | 505 kts | 38° |
| 2026-04-16 04:37 | 23.36504 | 116.70414 | 38879 ft | 505 kts | 38° |
| 2026-04-16 04:37 | 23.42053 | 116.75103 | 38878 ft | 505 kts | 40° |
| 2026-04-16 04:38 | 23.47215 | 116.80277 | 38880 ft | 504 kts | 46° |
| 2026-04-16 04:38 | 23.52084 | 116.85780 | 38880 ft | 504 kts | 47° |
| 2026-04-16 04:39 | 23.56945 | 116.91322 | 38880 ft | 504 kts | 46° |
| 2026-04-16 04:39 | 23.61800 | 116.96848 | 38879 ft | 504 kts | 46° |
| 2026-04-16 04:40 | 23.66650 | 117.02367 | 38879 ft | 504 kts | 46° |
| 2026-04-16 04:40 | 23.71380 | 117.07756 | 38880 ft | 504 kts | 46° |
| 2026-04-16 04:41 | 23.76262 | 117.13264 | 38879 ft | 504 kts | 45° |
| 2026-04-16 04:41 | 23.81442 | 117.18445 | 38879 ft | 504 kts | 42° |
| 2026-04-16 04:42 | 23.86689 | 117.23549 | 38878 ft | 504 kts | 42° |
| 2026-04-16 04:42 | 23.91930 | 117.28658 | 38878 ft | 504 kts | 42° |
| 2026-04-16 04:43 | 23.97131 | 117.33743 | 38878 ft | 504 kts | 42° |
| 2026-04-16 04:43 | 24.02368 | 117.38873 | 38879 ft | 504 kts | 42° |
| 2026-04-16 04:44 | 24.07635 | 117.44038 | 38879 ft | 504 kts | 42° |
| 2026-04-16 04:44 | 24.12811 | 117.49163 | 38879 ft | 504 kts | 44° |
| 2026-04-16 04:45 | 24.17676 | 117.54693 | 38880 ft | 504 kts | 48° |
| 2026-04-16 04:45 | 24.22401 | 117.60370 | 38879 ft | 504 kts | 48° |
| 2026-04-16 04:46 | 24.27123 | 117.66055 | 38879 ft | 504 kts | 48° |
| 2026-04-16 04:46 | 24.31851 | 117.71743 | 38880 ft | 504 kts | 48° |
| 2026-04-16 04:47 | 24.36579 | 117.77434 | 38880 ft | 504 kts | 48° |
| 2026-04-16 04:47 | 24.41303 | 117.83126 | 38879 ft | 504 kts | 48° |
| 2026-04-16 04:48 | 24.46024 | 117.88821 | 38880 ft | 504 kts | 48° |
| 2026-04-16 04:48 | 24.50748 | 117.94526 | 38878 ft | 504 kts | 48° |
| 2026-04-16 04:49 | 24.55464 | 118.00230 | 38880 ft | 504 kts | 48° |
| 2026-04-16 04:49 | 24.60273 | 118.05839 | 38880 ft | 504 kts | 46° |
| 2026-04-16 04:50 | 24.65185 | 118.11355 | 38879 ft | 504 kts | 46° |
| 2026-04-16 04:50 | 24.70039 | 118.16854 | 38880 ft | 504 kts | 46° |
| 2026-04-16 04:51 | 24.74920 | 118.22412 | 38880 ft | 504 kts | 46° |
| 2026-04-16 04:51 | 24.79794 | 118.27973 | 38878 ft | 504 kts | 46° |
| 2026-04-16 04:52 | 24.84666 | 118.33538 | 38879 ft | 504 kts | 46° |
| 2026-04-16 04:52 | 24.89393 | 118.38944 | 38879 ft | 504 kts | 46° |
| 2026-04-16 04:53 | 24.94264 | 118.44519 | 38880 ft | 504 kts | 46° |
| 2026-04-16 04:53 | 24.99128 | 118.50095 | 38879 ft | 504 kts | 46° |
| 2026-04-16 04:54 | 25.03988 | 118.55673 | 38880 ft | 504 kts | 46° |
| 2026-04-16 04:54 | 25.08850 | 118.61260 | 38880 ft | 504 kts | 46° |
| 2026-04-16 04:55 | 25.13503 | 118.66781 | 38879 ft | 504 kts | 48° |
| 2026-04-16 04:55 | 25.18221 | 118.72508 | 38881 ft | 504 kts | 48° |
| 2026-04-16 04:56 | 25.22916 | 118.78196 | 38880 ft | 504 kts | 48° |
| 2026-04-16 04:56 | 25.27651 | 118.83925 | 38877 ft | 504 kts | 48° |
| 2026-04-16 04:57 | 25.32386 | 118.89658 | 38879 ft | 504 kts | 48° |
| 2026-04-16 04:57 | 25.37158 | 118.95353 | 38878 ft | 504 kts | 47° |
| 2026-04-16 04:58 | 25.41988 | 119.00964 | 38878 ft | 504 kts | 47° |
| 2026-04-16 04:58 | 25.46822 | 119.06592 | 38880 ft | 504 kts | 47° |
| 2026-04-16 04:59 | 25.51653 | 119.12240 | 38879 ft | 504 kts | 47° |
| 2026-04-16 04:59 | 25.56479 | 119.17894 | 38876 ft | 504 kts | 47° |
| 2026-04-16 05:00 | 25.61300 | 119.23550 | 38880 ft | 504 kts | 47° |
| 2026-04-16 05:00 | 25.66083 | 119.29168 | 38879 ft | 504 kts | 46° |
| 2026-04-16 05:01 | 25.71289 | 119.34374 | 38880 ft | 505 kts | 38° |
| 2026-04-16 05:01 | 25.77189 | 119.38619 | 38879 ft | 505 kts | 28° |
| 2026-04-16 05:02 | 25.83615 | 119.41768 | 38877 ft | 505 kts | 19° |
| 2026-04-16 05:02 | 25.90328 | 119.44098 | 38881 ft | 505 kts | 17° |
| 2026-04-16 05:03 | 25.97066 | 119.46344 | 38880 ft | 505 kts | 17° |
| 2026-04-16 05:04 | 26.07150 | 119.49757 | 38879 ft | 505 kts | 17° |
| 2026-04-16 05:04 | 26.13870 | 119.52046 | 38879 ft | 505 kts | 17° |
| 2026-04-16 05:05 | 26.20471 | 119.54749 | 38880 ft | 505 kts | 23° |
| 2026-04-16 05:05 | 26.26767 | 119.58217 | 38878 ft | 505 kts | 30° |
| 2026-04-16 05:06 | 26.32768 | 119.62306 | 38879 ft | 505 kts | 32° |
| 2026-04-16 05:06 | 26.38711 | 119.66499 | 38879 ft | 505 kts | 32° |
| 2026-04-16 05:07 | 26.44619 | 119.70653 | 38879 ft | 505 kts | 32° |
| 2026-04-16 05:07 | 26.50578 | 119.74832 | 38878 ft | 505 kts | 32° |
| 2026-04-16 05:08 | 26.56528 | 119.79006 | 38879 ft | 505 kts | 32° |
| 2026-04-16 05:08 | 26.62482 | 119.83188 | 38880 ft | 505 kts | 32° |
| 2026-04-16 05:09 | 26.68435 | 119.87377 | 38879 ft | 505 kts | 32° |
| 2026-04-16 05:09 | 26.73380 | 119.90861 | 38878 ft | 505 kts | 32° |
| 2026-04-16 05:10 | 26.79324 | 119.95054 | 38879 ft | 505 kts | 32° |
| 2026-04-16 05:10 | 26.85273 | 119.99256 | 38880 ft | 505 kts | 32° |
| 2026-04-16 05:11 | 26.91212 | 120.03457 | 38879 ft | 505 kts | 32° |
| 2026-04-16 05:11 | 26.97156 | 120.07671 | 38879 ft | 505 kts | 32° |
| 2026-04-16 05:12 | 27.03094 | 120.11888 | 38878 ft | 505 kts | 32° |
| 2026-04-16 05:12 | 27.09035 | 120.16111 | 38879 ft | 505 kts | 32° |
| 2026-04-16 05:13 | 27.14974 | 120.20330 | 38879 ft | 505 kts | 32° |
| 2026-04-16 05:13 | 27.20934 | 120.24531 | 38879 ft | 505 kts | 32° |
| 2026-04-16 05:14 | 27.26887 | 120.28732 | 38878 ft | 505 kts | 32° |
| 2026-04-16 05:14 | 27.32839 | 120.32941 | 38879 ft | 505 kts | 32° |
| 2026-04-16 05:15 | 27.38790 | 120.37158 | 38880 ft | 505 kts | 32° |
| 2026-04-16 05:15 | 27.44738 | 120.41385 | 38879 ft | 505 kts | 32° |
| 2026-04-16 05:16 | 27.50505 | 120.45491 | 38880 ft | 505 kts | 32° |
| 2026-04-16 05:16 | 27.56417 | 120.49704 | 38879 ft | 505 kts | 32° |
| 2026-04-16 05:17 | 27.62360 | 120.53946 | 38879 ft | 505 kts | 32° |
| 2026-04-16 05:17 | 27.68154 | 120.58433 | 38875 ft | 505 kts | 41° |
| 2026-04-16 05:18 | 27.72935 | 120.64201 | 38878 ft | 504 kts | 54° |
| 2026-04-16 05:18 | 27.76367 | 120.71076 | 38880 ft | 502 kts | 69° |
| 2026-04-16 05:19 | 27.78373 | 120.78614 | 38882 ft | 501 kts | 77° |
| 2026-04-16 05:19 | 27.79957 | 120.86288 | 38880 ft | 501 kts | 78° |
| 2026-04-16 05:20 | 27.81542 | 120.93968 | 38880 ft | 501 kts | 78° |
| 2026-04-16 05:20 | 27.83129 | 121.01578 | 38880 ft | 501 kts | 77° |
| 2026-04-16 05:21 | 27.84732 | 121.09255 | 38880 ft | 501 kts | 78° |
| 2026-04-16 05:21 | 27.86330 | 121.16928 | 38880 ft | 501 kts | 78° |
| 2026-04-16 05:22 | 27.87924 | 121.24610 | 38879 ft | 501 kts | 78° |
| 2026-04-16 05:22 | 27.89521 | 121.32286 | 38880 ft | 501 kts | 78° |
| 2026-04-16 05:23 | 27.91113 | 121.39963 | 38879 ft | 501 kts | 78° |
| 2026-04-16 05:23 | 27.92700 | 121.47644 | 38880 ft | 501 kts | 78° |
| 2026-04-16 05:24 | 27.94283 | 121.55335 | 38880 ft | 501 kts | 78° |
| 2026-04-16 05:24 | 27.95861 | 121.63021 | 38879 ft | 501 kts | 78° |
| 2026-04-16 05:25 | 27.97441 | 121.70710 | 38879 ft | 501 kts | 76° |
| 2026-04-16 05:25 | 28.00047 | 121.78022 | 38876 ft | 503 kts | 60° |
| 2026-04-16 05:26 | 28.04277 | 121.84272 | 38878 ft | 505 kts | 45° |
| 2026-04-16 05:26 | 28.05415 | 121.85480 | 38879 ft | 505 kts | 41° |
| 2026-04-16 05:27 | 28.07638 | 121.87493 | 38879 ft | 505 kts | 36° |
| 2026-04-16 05:27 | 28.14650 | 121.91956 | 38882 ft | 506 kts | 26° |
| 2026-04-16 05:28 | 28.22138 | 121.96179 | 38879 ft | 505 kts | 27° |
| 2026-04-16 05:28 | 28.29424 | 122.00350 | 38881 ft | 505 kts | 27° |
| 2026-04-16 05:29 | 28.36438 | 122.04406 | 38879 ft | 505 kts | 27° |
| 2026-04-16 05:29 | 28.43397 | 122.08444 | 38881 ft | 505 kts | 27° |
| 2026-04-16 05:30 | 28.48786 | 122.11576 | 38881 ft | 505 kts | 27° |
| 2026-04-16 05:30 | 28.55463 | 122.15462 | 38880 ft | 505 kts | 27° |
| 2026-04-16 05:31 | 28.62187 | 122.19380 | 38881 ft | 505 kts | 27° |
| 2026-04-16 05:31 | 28.68832 | 122.23258 | 38881 ft | 505 kts | 27° |
| 2026-04-16 05:32 | 28.75318 | 122.27049 | 38881 ft | 505 kts | 27° |
| 2026-04-16 05:32 | 28.82293 | 122.31132 | 38880 ft | 505 kts | 27° |
| 2026-04-16 05:33 | 28.89803 | 122.35535 | 38880 ft | 505 kts | 27° |
| 2026-04-16 05:33 | 28.97190 | 122.39874 | 38879 ft | 505 kts | 27° |
| 2026-04-16 05:34 | 29.04741 | 122.44317 | 38879 ft | 505 kts | 27° |
| 2026-04-16 05:34 | 29.12031 | 122.48480 | 38876 ft | 505 kts | 22° |
| 2026-04-16 05:35 | 29.19723 | 122.51023 | 38879 ft | 506 kts | 8° |
| 2026-04-16 05:35 | 29.28471 | 122.51331 | 38880 ft | 504 kts | 353° |
| 2026-04-16 05:36 | 29.36453 | 122.49670 | 38882 ft | 504 kts | 347° |
| 2026-04-16 05:36 | 29.44400 | 122.47726 | 38880 ft | 504 kts | 347° |
| 2026-04-16 05:37 | 29.51549 | 122.46034 | 38879 ft | 504 kts | 348° |
| 2026-04-16 05:37 | 29.59111 | 122.44271 | 38879 ft | 504 kts | 348° |
| 2026-04-16 05:38 | 29.65937 | 122.42679 | 38879 ft | 504 kts | 348° |
| 2026-04-16 05:38 | 29.72813 | 122.41073 | 38880 ft | 504 kts | 348° |
| 2026-04-16 05:39 | 29.79688 | 122.39466 | 38878 ft | 504 kts | 348° |
| 2026-04-16 05:39 | 29.86567 | 122.37885 | 38877 ft | 504 kts | 349° |
| 2026-04-16 05:40 | 29.93535 | 122.36893 | 38879 ft | 505 kts | 355° |
| 2026-04-16 05:40 | 30.00553 | 122.36761 | 38879 ft | 505 kts | 2° |
| 2026-04-16 05:41 | 30.07571 | 122.37182 | 38880 ft | 505 kts | 3° |
| 2026-04-16 05:41 | 30.14590 | 122.37650 | 38880 ft | 505 kts | 3° |
| 2026-04-16 05:42 | 30.21611 | 122.38100 | 38879 ft | 505 kts | 2° |
| 2026-04-16 05:42 | 30.28632 | 122.38519 | 38879 ft | 505 kts | 2° |
| 2026-04-16 05:43 | 30.35606 | 122.38877 | 38879 ft | 505 kts | 2° |
| 2026-04-16 05:43 | 30.42634 | 122.39240 | 38879 ft | 505 kts | 2° |
| 2026-04-16 05:44 | 30.49660 | 122.39608 | 38880 ft | 505 kts | 2° |
| 2026-04-16 05:44 | 30.56679 | 122.39979 | 38880 ft | 505 kts | 2° |
| 2026-04-16 05:45 | 30.63702 | 122.40362 | 38880 ft | 505 kts | 2° |
| 2026-04-16 05:45 | 30.70727 | 122.40761 | 38880 ft | 505 kts | 2° |
| 2026-04-16 05:46 | 30.77747 | 122.41160 | 38879 ft | 505 kts | 2° |
| 2026-04-16 05:46 | 30.84770 | 122.41558 | 38880 ft | 505 kts | 2° |
| 2026-04-16 05:47 | 30.91790 | 122.41957 | 38880 ft | 505 kts | 2° |
| 2026-04-16 05:47 | 30.98768 | 122.42353 | 38880 ft | 505 kts | 2° |
| 2026-04-16 05:48 | 31.05786 | 122.42748 | 38880 ft | 505 kts | 2° |
| 2026-04-16 05:48 | 31.12807 | 122.43140 | 38879 ft | 505 kts | 2° |
| 2026-04-16 05:49 | 31.19828 | 122.43534 | 38880 ft | 505 kts | 2° |
| 2026-04-16 05:49 | 31.26848 | 122.43929 | 38880 ft | 505 kts | 2° |
| 2026-04-16 05:50 | 31.33871 | 122.44326 | 38879 ft | 505 kts | 1° |
| 2026-04-16 05:50 | 31.40889 | 122.44142 | 38879 ft | 505 kts | 354° |
| 2026-04-16 05:51 | 31.47821 | 122.42915 | 38880 ft | 504 kts | 347° |
| 2026-04-16 05:51 | 31.54560 | 122.40658 | 38880 ft | 503 kts | 339° |
| 2026-04-16 05:52 | 31.61060 | 122.37736 | 38880 ft | 503 kts | 338° |
| 2026-04-16 05:52 | 31.67579 | 122.34731 | 38881 ft | 503 kts | 338° |
| 2026-04-16 05:53 | 31.74100 | 122.31737 | 38879 ft | 503 kts | 338° |
| 2026-04-16 05:53 | 31.80547 | 122.28524 | 38880 ft | 503 kts | 335° |
| 2026-04-16 05:54 | 31.87035 | 122.25440 | 38880 ft | 503 kts | 338° |
| 2026-04-16 05:54 | 31.93573 | 122.22488 | 38879 ft | 503 kts | 338° |
| 2026-04-16 05:55 | 32.00109 | 122.19541 | 38880 ft | 503 kts | 338° |
| 2026-04-16 05:55 | 32.06645 | 122.16585 | 38880 ft | 503 kts | 338° |
| 2026-04-16 05:56 | 32.13181 | 122.13621 | 38881 ft | 503 kts | 338° |
| 2026-04-16 05:56 | 32.19717 | 122.10652 | 38879 ft | 503 kts | 338° |
| 2026-04-16 05:57 | 32.26251 | 122.07678 | 38880 ft | 503 kts | 338° |
| 2026-04-16 05:57 | 32.32788 | 122.04698 | 38879 ft | 503 kts | 338° |
| 2026-04-16 05:58 | 32.39316 | 122.01717 | 38878 ft | 503 kts | 338° |
| 2026-04-16 05:58 | 32.44742 | 121.99236 | 38878 ft | 503 kts | 338° |
| 2026-04-16 05:59 | 32.52333 | 121.95759 | 38878 ft | 503 kts | 338° |
| 2026-04-16 05:59 | 32.58864 | 121.92763 | 38881 ft | 503 kts | 338° |
| 2026-04-16 06:00 | 32.64338 | 121.90249 | 38879 ft | 503 kts | 338° |
| 2026-04-16 06:00 | 32.70863 | 121.87247 | 38880 ft | 503 kts | 338° |
| 2026-04-16 06:01 | 32.77395 | 121.84238 | 38879 ft | 503 kts | 338° |
| 2026-04-16 06:01 | 32.83923 | 121.81225 | 38878 ft | 503 kts | 338° |
| 2026-04-16 06:02 | 32.93671 | 121.76718 | 38880 ft | 503 kts | 338° |
| 2026-04-16 06:02 | 33.00194 | 121.73695 | 38879 ft | 503 kts | 338° |
| 2026-04-16 06:03 | 33.06718 | 121.70668 | 38880 ft | 503 kts | 338° |
| 2026-04-16 06:03 | 33.13243 | 121.67635 | 38879 ft | 503 kts | 338° |
| 2026-04-16 06:04 | 33.19766 | 121.64598 | 38880 ft | 503 kts | 338° |
| 2026-04-16 06:04 | 33.26285 | 121.61546 | 38879 ft | 503 kts | 337° |
| 2026-04-16 06:05 | 33.32723 | 121.58263 | 38879 ft | 503 kts | 335° |
| 2026-04-16 06:05 | 33.39150 | 121.54920 | 38880 ft | 503 kts | 336° |
| 2026-04-16 06:06 | 33.45541 | 121.51615 | 38880 ft | 503 kts | 336° |
| 2026-04-16 06:06 | 33.51972 | 121.48296 | 38878 ft | 503 kts | 336° |
| 2026-04-16 06:07 | 33.58395 | 121.44978 | 38879 ft | 503 kts | 336° |
| 2026-04-16 06:07 | 33.64821 | 121.41653 | 38879 ft | 503 kts | 336° |
| 2026-04-16 06:08 | 33.71289 | 121.38436 | 38879 ft | 503 kts | 338° |
| 2026-04-16 06:08 | 33.77818 | 121.35383 | 38880 ft | 503 kts | 338° |
| 2026-04-16 06:09 | 33.84342 | 121.32322 | 38879 ft | 503 kts | 338° |
| 2026-04-16 06:09 | 33.90861 | 121.29241 | 38879 ft | 503 kts | 338° |
| 2026-04-16 06:10 | 33.97379 | 121.26149 | 38880 ft | 503 kts | 338° |
| 2026-04-16 06:10 | 34.03894 | 121.23051 | 38879 ft | 503 kts | 338° |
| 2026-04-16 06:11 | 34.10407 | 121.19949 | 38879 ft | 503 kts | 338° |
| 2026-04-16 06:11 | 34.16920 | 121.16841 | 38879 ft | 503 kts | 338° |
| 2026-04-16 06:12 | 34.23437 | 121.13726 | 38881 ft | 503 kts | 338° |
| 2026-04-16 06:12 | 34.29734 | 121.10711 | 38880 ft | 503 kts | 338° |
| 2026-04-16 06:13 | 34.36251 | 121.07586 | 38879 ft | 503 kts | 338° |
| 2026-04-16 06:13 | 34.42796 | 121.04443 | 38880 ft | 503 kts | 338° |
| 2026-04-16 06:14 | 34.45891 | 121.02954 | 38753 ft | 504 kts | 338° |
| 2026-04-16 06:14 | 34.49142 | 121.01389 | 38492 ft | 501 kts | 338° |
| 2026-04-16 06:14 | 34.52370 | 120.99835 | 38249 ft | 499 kts | 338° |
| 2026-04-16 06:14 | 34.55586 | 120.98284 | 37994 ft | 496 kts | 338° |
| 2026-04-16 06:15 | 34.58779 | 120.96743 | 37747 ft | 493 kts | 338° |
| 2026-04-16 06:15 | 34.61963 | 120.95205 | 37472 ft | 492 kts | 338° |
| 2026-04-16 06:15 | 34.65138 | 120.93670 | 37107 ft | 492 kts | 338° |
| 2026-04-16 06:15 | 34.68321 | 120.92130 | 36589 ft | 492 kts | 338° |
| 2026-04-16 06:16 | 34.71508 | 120.90586 | 35980 ft | 493 kts | 338° |
| 2026-04-16 06:16 | 34.74700 | 120.89039 | 35304 ft | 494 kts | 337° |
| 2026-04-16 06:16 | 34.77888 | 120.87493 | 34613 ft | 494 kts | 337° |
| 2026-04-16 06:16 | 34.81086 | 120.85941 | 33924 ft | 494 kts | 337° |
| 2026-04-16 06:17 | 34.84278 | 120.84390 | 33228 ft | 494 kts | 337° |
| 2026-04-16 06:17 | 34.87479 | 120.82833 | 32515 ft | 496 kts | 337° |
| 2026-04-16 06:17 | 34.90690 | 120.81271 | 31793 ft | 497 kts | 337° |
| 2026-04-16 06:17 | 34.93900 | 120.79708 | 31073 ft | 497 kts | 337° |
| 2026-04-16 06:18 | 34.97065 | 120.78165 | 30310 ft | 497 kts | 337° |
| 2026-04-16 06:18 | 35.00265 | 120.76604 | 29538 ft | 497 kts | 337° |
| 2026-04-16 06:18 | 35.03521 | 120.75015 | 28745 ft | 497 kts | 337° |
| 2026-04-16 06:18 | 35.06685 | 120.73469 | 27970 ft | 497 kts | 337° |
| 2026-04-16 06:19 | 35.09878 | 120.71907 | 27467 ft | 491 kts | 337° |
| 2026-04-16 06:19 | 35.13038 | 120.70360 | 26901 ft | 487 kts | 337° |
| 2026-04-16 06:19 | 35.16170 | 120.68828 | 26367 ft | 482 kts | 337° |
| 2026-04-16 06:19 | 35.19267 | 120.67323 | 25868 ft | 477 kts | 338° |
| 2026-04-16 06:20 | 35.22334 | 120.65837 | 25340 ft | 472 kts | 338° |
| 2026-04-16 06:20 | 35.25375 | 120.64363 | 24787 ft | 468 kts | 338° |
| 2026-04-16 06:20 | 35.28394 | 120.62897 | 24273 ft | 464 kts | 338° |
| 2026-04-16 06:20 | 35.31376 | 120.61447 | 23783 ft | 459 kts | 338° |
| 2026-04-16 06:21 | 35.34329 | 120.60010 | 23299 ft | 455 kts | 337° |
| 2026-04-16 06:21 | 35.37256 | 120.58583 | 22820 ft | 451 kts | 337° |
| 2026-04-16 06:21 | 35.40161 | 120.57173 | 22347 ft | 447 kts | 338° |
| 2026-04-16 06:21 | 35.43046 | 120.55781 | 21871 ft | 444 kts | 338° |
| 2026-04-16 06:22 | 35.45911 | 120.54400 | 21397 ft | 440 kts | 338° |
| 2026-04-16 06:22 | 35.48751 | 120.53026 | 20939 ft | 436 kts | 338° |
| 2026-04-16 06:22 | 35.51564 | 120.51661 | 20459 ft | 433 kts | 338° |
| 2026-04-16 06:22 | 35.54351 | 120.50306 | 19990 ft | 429 kts | 338° |
| 2026-04-16 06:23 | 35.57115 | 120.48961 | 19535 ft | 426 kts | 337° |
| 2026-04-16 06:23 | 35.59854 | 120.47628 | 19048 ft | 422 kts | 337° |
| 2026-04-16 06:23 | 35.62576 | 120.46302 | 18593 ft | 418 kts | 337° |
| 2026-04-16 06:23 | 35.65270 | 120.44989 | 18132 ft | 415 kts | 337° |
| 2026-04-16 06:24 | 35.67941 | 120.43686 | 17670 ft | 411 kts | 337° |
| 2026-04-16 06:24 | 35.70594 | 120.42391 | 17204 ft | 409 kts | 337° |
| 2026-04-16 06:24 | 35.73229 | 120.41104 | 16753 ft | 406 kts | 337° |
| 2026-04-16 06:24 | 35.75681 | 120.39905 | 16312 ft | 404 kts | 337° |
| 2026-04-16 06:25 | 35.78300 | 120.38624 | 15851 ft | 402 kts | 337° |
| 2026-04-16 06:25 | 35.80891 | 120.37356 | 15383 ft | 400 kts | 337° |
| 2026-04-16 06:25 | 35.83471 | 120.36093 | 14936 ft | 398 kts | 337° |
| 2026-04-16 06:25 | 35.86039 | 120.34834 | 14469 ft | 396 kts | 337° |
| 2026-04-16 06:26 | 35.88592 | 120.33581 | 14016 ft | 393 kts | 337° |
| 2026-04-16 06:26 | 35.91121 | 120.32340 | 13550 ft | 390 kts | 337° |
| 2026-04-16 06:26 | 35.93629 | 120.31108 | 13091 ft | 386 kts | 337° |
| 2026-04-16 06:26 | 35.96145 | 120.29952 | 12635 ft | 384 kts | 341° |
| 2026-04-16 06:27 | 35.98723 | 120.29118 | 12179 ft | 383 kts | 347° |
| 2026-04-16 06:27 | 36.01359 | 120.28624 | 11713 ft | 380 kts | 353° |
| 2026-04-16 06:27 | 36.03981 | 120.28301 | 11271 ft | 378 kts | 354° |
| 2026-04-16 06:27 | 36.06584 | 120.28011 | 10821 ft | 375 kts | 354° |
| 2026-04-16 06:28 | 36.09148 | 120.27727 | 10639 ft | 362 kts | 354° |
| 2026-04-16 06:28 | 36.11612 | 120.27448 | 10513 ft | 349 kts | 354° |
| 2026-04-16 06:28 | 36.13999 | 120.27172 | 10375 ft | 336 kts | 354° |
| 2026-04-16 06:28 | 36.16283 | 120.26905 | 10248 ft | 324 kts | 354° |
| 2026-04-16 06:29 | 36.18483 | 120.26645 | 10129 ft | 311 kts | 354° |
| 2026-04-16 06:29 | 36.20602 | 120.26395 | 10027 ft | 300 kts | 354° |
| 2026-04-16 06:29 | 36.22647 | 120.26152 | 9925 ft | 292 kts | 354° |
| 2026-04-16 06:29 | 36.24658 | 120.25913 | 9840 ft | 288 kts | 353° |
| 2026-04-16 06:30 | 36.26656 | 120.25675 | 9514 ft | 289 kts | 353° |
| 2026-04-16 06:30 | 36.28647 | 120.25344 | 9196 ft | 288 kts | 348° |
| 2026-04-16 06:30 | 36.30588 | 120.24758 | 8883 ft | 286 kts | 342° |
| 2026-04-16 06:30 | 36.32484 | 120.24034 | 8586 ft | 284 kts | 341° |
| 2026-04-16 06:31 | 36.34362 | 120.23293 | 8295 ft | 283 kts | 341° |
| 2026-04-16 06:31 | 36.36231 | 120.22553 | 8003 ft | 281 kts | 341° |
| 2026-04-16 06:31 | 36.38089 | 120.21820 | 7714 ft | 279 kts | 341° |
| 2026-04-16 06:31 | 36.39938 | 120.21092 | 7415 ft | 278 kts | 341° |
| 2026-04-16 06:32 | 36.41783 | 120.20369 | 7125 ft | 278 kts | 341° |
| 2026-04-16 06:32 | 36.43497 | 120.19697 | 6861 ft | 277 kts | 341° |
| 2026-04-16 06:32 | 36.45217 | 120.19022 | 6592 ft | 276 kts | 341° |
| 2026-04-16 06:32 | 36.47043 | 120.18307 | 6301 ft | 275 kts | 341° |
| 2026-04-16 06:33 | 36.48868 | 120.17591 | 6010 ft | 274 kts | 341° |
| 2026-04-16 06:33 | 36.50681 | 120.16880 | 5721 ft | 273 kts | 341° |
| 2026-04-16 06:33 | 36.52488 | 120.16171 | 5442 ft | 272 kts | 341° |
| 2026-04-16 06:33 | 36.54286 | 120.15465 | 5161 ft | 271 kts | 341° |
| 2026-04-16 06:34 | 36.56080 | 120.14760 | 4878 ft | 270 kts | 341° |
| 2026-04-16 06:34 | 36.57837 | 120.14070 | 4801 ft | 259 kts | 341° |
| 2026-04-16 06:34 | 36.59516 | 120.13412 | 4743 ft | 247 kts | 341° |
| 2026-04-16 06:34 | 36.61089 | 120.12688 | 4634 ft | 238 kts | 324° |
| 2026-04-16 06:35 | 36.62101 | 120.11156 | 4537 ft | 231 kts | 284° |
| 2026-04-16 06:35 | 36.62117 | 120.09213 | 4247 ft | 224 kts | 250° |
| 2026-04-16 06:35 | 36.61602 | 120.07391 | 3989 ft | 223 kts | 248° |
| 2026-04-16 06:35 | 36.61091 | 120.05575 | 3745 ft | 221 kts | 249° |
| 2026-04-16 06:36 | 36.60599 | 120.03758 | 3485 ft | 221 kts | 250° |
| 2026-04-16 06:36 | 36.60121 | 120.01943 | 3241 ft | 220 kts | 250° |
| 2026-04-16 06:36 | 36.59530 | 120.00200 | 2938 ft | 218 kts | 228° |
| 2026-04-16 06:36 | 36.58302 | 119.99229 | 2834 ft | 209 kts | 191° |
| 2026-04-16 06:37 | 36.56882 | 119.99318 | 2835 ft | 206 kts | 165° |
| 2026-04-16 06:37 | 36.55525 | 119.99865 | 2878 ft | 203 kts | 163° |
| 2026-04-16 06:37 | 36.54191 | 120.00412 | 2862 ft | 201 kts | 163° |
| 2026-04-16 06:37 | 36.52876 | 120.00946 | 2835 ft | 193 kts | 163° |
| 2026-04-16 06:38 | 36.51651 | 120.01437 | 2799 ft | 178 kts | 164° |
| 2026-04-16 06:38 | 36.50479 | 120.01901 | 2614 ft | 176 kts | 164° |
| 2026-04-16 06:38 | 36.49339 | 120.02349 | 2393 ft | 173 kts | 164° |
| 2026-04-16 06:38 | 36.48178 | 120.02806 | 2193 ft | 172 kts | 164° |
| 2026-04-16 06:39 | 36.47051 | 120.03249 | 1995 ft | 172 kts | 164° |
| 2026-04-16 06:39 | 36.45914 | 120.03698 | 1852 ft | 172 kts | 164° |
| 2026-04-16 06:39 | 36.44768 | 120.04150 | 1624 ft | 171 kts | 165° |
| 2026-04-16 06:39 | 36.43660 | 120.04587 | 1383 ft | 162 kts | 164° |
| 2026-04-16 06:40 | 36.42618 | 120.04999 | 1162 ft | 155 kts | 165° |
| 2026-04-16 06:40 | 36.41591 | 120.05405 | 999 ft | 154 kts | 161° |
| 2026-04-16 06:40 | 36.40572 | 120.05834 | 790 ft | 154 kts | 163° |
| 2026-04-16 06:40 | 36.39553 | 120.06229 | 596 ft | 153 kts | 166° |
| 2026-04-16 06:41 | 36.38526 | 120.06593 | 398 ft | 153 kts | 164° |
| 2026-04-16 06:41 | 36.37520 | 120.06988 | 170 ft | 149 kts | 164° |
| 2026-04-16 06:41 | 36.36553 | 120.07386 | 49 ft | 137 kts | 164° |
| 2026-04-16 06:41 | 36.35860 | 120.07655 | 45 ft | 65 kts | 163° |
| 2026-04-16 06:42 | 36.35566 | 120.07822 | 47 ft | 37 kts | 134° |
| 2026-04-16 06:42 | 36.35506 | 120.07995 | 46 ft | 19 kts | 74° |
| 2026-04-16 06:42 | 36.35549 | 120.08134 | 45 ft | 12 kts | 62° |
| 2026-04-16 06:42 | 36.35624 | 120.08154 | 45 ft | 13 kts | 348° |
| 2026-04-16 06:43 | 36.35723 | 120.08115 | 45 ft | 17 kts | 342° |
| 2026-04-16 06:43 | 36.35847 | 120.08066 | 46 ft | 20 kts | 342° |
| 2026-04-16 06:43 | 36.35992 | 120.08008 | 46 ft | 23 kts | 342° |
| 2026-04-16 06:43 | 36.36142 | 120.07948 | 46 ft | 22 kts | 342° |
| 2026-04-16 06:44 | 36.36299 | 120.07886 | 46 ft | 25 kts | 342° |
| 2026-04-16 06:44 | 36.36391 | 120.07850 | 46 ft | 12 kts | 342° |
| 2026-04-16 06:44 | 36.36471 | 120.07803 | 46 ft | 12 kts | 302° |
| 2026-04-16 06:44 | 36.36479 | 120.07771 | 46 ft | 0 kts | 257° |